Avondale, Missouri
Current Conditions -  °F | °C
As of 10:10 AM on Sunday 21 Dec 2014 (Local Time) from KMKC Reporting Station
Overcast Overcast  
Wind Chill: 34°   Ceiling: 1500
Heat Index: 42°   Visibility: 10mi
Dew Point: 37°   Wind: 16mph
Humidity: 82%   Direction: 200°SSW
Pressure: 30.02"   Gusts: NA
Location:  39.1657°N, 94.5231°W
Report Text: KMKC 211610Z 20014KT 10SM OVC015 06/03 A3002 RMK AO2 T00560028
Loading
Personal Weather Stations






























Interactive Weather Map New forecast layout! Learn more

10-Day Weather Forecast

Advertisements
Track Severe Weather on mobile